createdAt,value
2022-10-15T00:01:47.172Z,99900.31
2022-10-15T00:04:15.477Z,99901.16
2022-10-15T00:06:43.816Z,99902.84
2022-10-15T00:09:13.496Z,99902.84
2022-10-15T00:11:41.805Z,99895.81
2022-10-15T00:14:10.336Z,99892.28
2022-10-15T00:16:38.882Z,99894.84
2022-10-15T00:19:07.138Z,99900.13
2022-10-15T00:21:35.359Z,99900.13
2022-10-15T00:24:03.943Z,99902.69
2022-10-15T00:26:33.696Z,99905.25
2022-10-15T00:29:05.251Z,99901.66
2022-10-15T00:31:34.184Z,99896.38
2022-10-15T00:34:03.992Z,99892.81
2022-10-15T00:36:35.749Z,99899.81
2022-10-15T00:39:05.893Z,99901.50
2022-10-15T00:41:39.305Z,99901.50
2022-10-15T00:44:51.973Z,99896.22
2022-10-15T00:47:27.879Z,99888.28
2022-10-15T00:50:06.880Z,99887.38
2022-10-15T00:52:44.891Z,99891.66
2022-10-15T00:55:18.440Z,99888.06
2022-10-15T00:57:51.992Z,99878.34
2022-10-15T01:00:21.706Z,99870.34
2022-10-15T01:02:50.342Z,99872.03
2022-10-15T01:05:21.081Z,99872.88
2022-10-15T01:07:49.624Z,99877.16
2022-10-15T01:10:19.379Z,99867.44
2022-10-15T01:12:59.681Z,99867.44
2022-10-15T01:15:35.657Z,99868.22
2022-10-15T01:18:11.075Z,99861.13
2022-10-15T01:20:55.616Z,99871.69
2022-10-15T01:24:22.167Z,99870.84
2022-10-15T01:27:23.477Z,99874.41
2022-10-15T01:30:24.724Z,99870.06
2022-10-15T01:33:23.752Z,99868.22
2022-10-15T01:36:00.162Z,99870.69
2022-10-15T01:38:44.948Z,99868.78
2022-10-15T01:41:20.521Z,99867.75
2022-10-15T01:43:59.514Z,99864.22
2022-10-15T01:46:46.272Z,99874.66
2022-10-15T01:49:26.108Z,99873.75
2022-10-15T01:51:55.355Z,99869.50
2022-10-15T01:54:27.912Z,99872.03
2022-10-15T01:56:58.564Z,99863.19
2022-10-15T01:59:32.201Z,99863.94
2022-10-15T02:02:02.015Z,99861.22
2022-10-15T02:04:32.679Z,99854.16
2022-10-15T02:07:06.946Z,99864.72
2022-10-15T02:09:45.820Z,99858.59
2022-10-15T02:12:34.951Z,99859.44
2022-10-15T02:15:12.770Z,99855.00
2022-10-15T02:17:47.292Z,99846.22
2022-10-15T02:20:21.065Z,99848.75
2022-10-15T02:22:57.235Z,99855.84
2022-10-15T02:25:29.040Z,99857.56
2022-10-15T02:28:00.151Z,99863.69
2022-10-15T02:30:31.090Z,99865.47
2022-10-15T02:33:01.467Z,99859.25
2022-10-15T02:35:30.106Z,99859.25
2022-10-15T02:38:03.068Z,99859.25
2022-10-15T02:40:35.766Z,99857.56
2022-10-15T02:43:09.513Z,99864.53
2022-10-15T02:45:38.188Z,99863.69
2022-10-15T02:48:09.109Z,99863.59
2022-10-15T02:50:37.423Z,99867.06
2022-10-15T02:53:06.887Z,99862.66
2022-10-15T02:55:36.743Z,99861.78
2022-10-15T02:58:04.931Z,99869.66
2022-10-15T03:00:33.563Z,99874.94
2022-10-15T03:03:02.203Z,99871.34
2022-10-15T03:05:32.107Z,99871.34
2022-10-15T03:08:01.305Z,99866.06
2022-10-15T03:10:30.842Z,99859.06
2022-10-15T03:13:04.487Z,99866.06
2022-10-15T03:15:37.342Z,99861.72
2022-10-15T03:18:06.193Z,99858.97
2022-10-15T03:20:37.742Z,99867.78
2022-10-15T03:23:06.035Z,99869.47
2022-10-15T03:25:34.930Z,99866.84
2022-10-15T03:28:06.180Z,99873.91
2022-10-15T03:30:41.432Z,99874.75
2022-10-15T03:33:09.896Z,99881.72
2022-10-15T03:35:40.114Z,99876.44
2022-10-15T03:38:10.188Z,99866.72
2022-10-15T03:40:39.523Z,99875.44
2022-10-15T03:43:25.229Z,99873.75
2022-10-15T03:45:54.458Z,99883.47
2022-10-15T03:48:26.016Z,99891.38
2022-10-15T03:50:56.156Z,99891.38
2022-10-15T03:53:25.028Z,99893.16
2022-10-15T03:55:53.564Z,99900.22
2022-10-15T03:58:21.869Z,99899.38
2022-10-15T04:00:56.524Z,99891.44
2022-10-15T04:03:24.788Z,99890.63
2022-10-15T04:05:56.752Z,99891.44
2022-10-15T04:08:29.599Z,99894.94
2022-10-15T04:10:59.191Z,99898.53
2022-10-15T04:13:28.320Z,99897.75
2022-10-15T04:15:57.466Z,99901.34
2022-10-15T04:18:25.877Z,99899.66
2022-10-15T04:21:00.326Z,99897.94
2022-10-15T04:23:28.975Z,99908.50
2022-10-15T04:26:15.911Z,99912.88
2022-10-15T04:28:44.335Z,99913.78
2022-10-15T04:31:12.925Z,99918.06
2022-10-15T04:33:42.057Z,99923.34
2022-10-15T04:36:14.734Z,99920.78
2022-10-15T04:38:54.200Z,99927.78
2022-10-15T04:41:36.355Z,99927.78
2022-10-15T04:44:08.537Z,99920.88
2022-10-15T04:46:38.771Z,99916.44
2022-10-15T04:49:23.784Z,99915.84
2022-10-15T04:51:53.754Z,99914.13
2022-10-15T04:54:30.407Z,99927.16
2022-10-15T04:57:03.619Z,99926.25
2022-10-15T04:59:32.879Z,99927.94
2022-10-15T05:02:36.497Z,99940.19
2022-10-15T05:05:25.008Z,99944.56
2022-10-15T05:08:02.247Z,99937.56
2022-10-15T05:10:32.904Z,99943.63
2022-10-15T05:13:05.607Z,99946.25
2022-10-15T05:15:36.593Z,99942.69
2022-10-15T05:18:08.160Z,99944.41
2022-10-15T05:20:51.967Z,99944.41
2022-10-15T05:23:22.918Z,99939.97
2022-10-15T05:26:01.496Z,99948.75
2022-10-15T05:28:30.139Z,99954.03
2022-10-15T05:30:58.489Z,99955.72
2022-10-15T05:33:28.773Z,99958.28
2022-10-15T05:35:57.163Z,99959.97
2022-10-15T05:38:27.008Z,99964.34
2022-10-15T05:40:55.491Z,99960.84
2022-10-15T05:43:25.798Z,99965.19
2022-10-15T05:45:55.682Z,99978.41
2022-10-15T05:48:24.651Z,99987.09
2022-10-15T05:50:52.984Z,99991.53
2022-10-15T05:53:28.093Z,99990.69
2022-10-15T05:56:01.299Z,100002.25
2022-10-15T05:58:37.339Z,99993.50
2022-10-15T06:01:08.286Z,100004.84
2022-10-15T06:03:41.138Z,100004.72
2022-10-15T06:06:16.604Z,100013.50
2022-10-15T06:08:46.655Z,100015.25
2022-10-15T06:11:15.399Z,100016.00
2022-10-15T06:13:45.182Z,100020.34
2022-10-15T06:16:19.282Z,100015.06
2022-10-15T06:18:52.538Z,100023.06
2022-10-15T06:21:21.237Z,100011.66
2022-10-15T06:23:50.924Z,100021.38
2022-10-15T06:26:19.415Z,100020.53
2022-10-15T06:28:49.933Z,100017.03
2022-10-15T06:31:18.197Z,100022.38
2022-10-15T06:33:46.379Z,100034.66
2022-10-15T06:36:15.657Z,100036.38
2022-10-15T06:38:44.976Z,100039.03
2022-10-15T06:41:14.569Z,100040.88
2022-10-15T06:43:43.134Z,100044.38
2022-10-15T06:46:11.557Z,100050.50
2022-10-15T06:48:39.771Z,100054.09
2022-10-15T06:51:08.133Z,100047.13
2022-10-15T06:53:37.121Z,100050.59
2022-10-15T06:56:06.040Z,100052.41
2022-10-15T06:58:43.248Z,100060.41
2022-10-15T07:01:11.949Z,100059.53
2022-10-15T07:03:40.337Z,100068.25
2022-10-15T07:06:10.672Z,100065.69
2022-10-15T07:08:39.429Z,100067.41
2022-10-15T07:11:09.688Z,100066.53
2022-10-15T07:13:38.670Z,100067.41
2022-10-15T07:16:11.565Z,100070.81
2022-10-15T07:18:40.428Z,100072.59
2022-10-15T07:23:44.412Z,100085.63
2022-10-15T07:26:13.178Z,100092.47
2022-10-15T07:28:41.766Z,100093.25
2022-10-15T07:31:11.424Z,100093.94
2022-10-15T07:33:39.801Z,100088.56
2022-10-15T07:36:12.788Z,100088.41
2022-10-15T07:38:43.211Z,100075.97
2022-10-15T07:41:12.160Z,100076.66
2022-10-15T07:43:44.231Z,100086.22
2022-10-15T07:46:14.152Z,100098.38
2022-10-15T07:48:42.358Z,100098.31
2022-10-15T07:51:12.902Z,100092.91
2022-10-15T07:53:41.455Z,100091.06
2022-10-15T07:56:14.065Z,100094.50
2022-10-15T07:58:43.270Z,100090.91
2022-10-15T08:01:13.806Z,100093.50
2022-10-15T08:03:42.023Z,100098.63
2022-10-15T08:06:10.327Z,100101.09
2022-10-15T08:08:39.138Z,100114.91
2022-10-15T08:11:08.287Z,100111.16
2022-10-15T08:13:38.878Z,100122.50
2022-10-15T08:16:07.709Z,100117.97
2022-10-15T08:18:38.085Z,100109.13
2022-10-15T08:21:07.996Z,100113.47
2022-10-15T08:23:36.886Z,100107.06
2022-10-15T08:26:05.497Z,100112.19
2022-10-15T08:28:35.703Z,100122.41
2022-10-15T08:31:06.193Z,100129.25
2022-10-15T08:33:37.105Z,100134.38
2022-10-15T08:36:06.988Z,100136.00
2022-10-15T08:38:35.676Z,100136.69
2022-10-15T08:41:13.829Z,100130.09
2022-10-15T08:43:44.306Z,100133.16
2022-10-15T08:46:24.019Z,100125.66
2022-10-15T08:48:57.335Z,100121.53
2022-10-15T08:51:29.016Z,100126.94
2022-10-15T08:54:02.941Z,100122.69
2022-10-15T08:56:36.685Z,100124.69
2022-10-15T08:59:14.603Z,100125.94
2022-10-15T09:01:51.951Z,100130.25
2022-10-15T09:04:31.849Z,100131.78
2022-10-15T09:07:10.410Z,100134.06
2022-10-15T09:09:48.276Z,100134.38
2022-10-15T09:12:43.540Z,100126.88
2022-10-15T09:15:16.697Z,100124.88
2022-10-15T09:17:49.150Z,100121.56
2022-10-15T09:20:31.253Z,100129.91
2022-10-15T09:22:59.759Z,100132.34
2022-10-15T09:25:37.064Z,100132.91
2022-10-15T09:28:12.080Z,100136.72
2022-10-15T09:30:47.670Z,100142.22
2022-10-15T09:33:28.551Z,100131.88
2022-10-15T09:36:18.179Z,100128.75
2022-10-15T09:39:02.565Z,100134.25
2022-10-15T09:41:40.481Z,100131.00
2022-10-15T09:44:17.300Z,100136.50
2022-10-15T09:46:51.565Z,100140.28
2022-10-15T09:49:33.873Z,100138.66
2022-10-15T09:52:12.485Z,100152.97
2022-10-15T09:54:50.750Z,100142.72
2022-10-15T09:57:23.397Z,100149.91
2022-10-15T09:59:56.733Z,100142.91
2022-10-15T10:02:29.473Z,100139.41
2022-10-15T10:04:58.103Z,100149.91
2022-10-15T10:07:35.103Z,100146.34
2022-10-15T10:10:06.648Z,100149.75
2022-10-15T10:12:38.314Z,100148.63
2022-10-15T10:15:29.287Z,100154.69
2022-10-15T10:17:58.602Z,100155.25
2022-10-15T10:20:29.082Z,100152.97
2022-10-15T10:23:00.849Z,100155.38
2022-10-15T10:25:39.549Z,100149.97
2022-10-15T10:28:22.527Z,100149.13
2022-10-15T10:31:03.307Z,100155.06
2022-10-15T10:33:36.885Z,100154.03
2022-10-15T10:38:43.317Z,100164.53
2022-10-15T10:41:13.174Z,100156.78
2022-10-15T10:43:53.093Z,100165.69
2022-10-15T10:46:24.352Z,100160.38
2022-10-15T10:48:54.775Z,100153.00
2022-10-15T10:51:25.611Z,100161.53
2022-10-15T10:54:00.540Z,100148.75
2022-10-15T10:56:36.611Z,100135.31
2022-10-15T10:59:14.722Z,100132.38
2022-10-15T11:01:43.383Z,100134.06
2022-10-15T11:04:18.589Z,100146.06
2022-10-15T11:07:01.678Z,100136.81
2022-10-15T11:09:52.345Z,100131.22
2022-10-15T11:12:53.199Z,100125.56
2022-10-15T11:15:44.356Z,100123.22
2022-10-15T11:18:50.156Z,100140.28
2022-10-15T11:21:34.561Z,100122.84
2022-10-15T11:24:13.692Z,100131.00
2022-10-15T11:27:10.736Z,100127.50
2022-10-15T11:29:56.073Z,100118.28
2022-10-15T11:33:06.151Z,100123.00
2022-10-15T11:35:54.702Z,100115.59
2022-10-15T11:38:34.807Z,100119.00
2022-10-15T11:41:25.072Z,100114.66
2022-10-15T11:44:19.380Z,100107.44
2022-10-15T11:46:59.684Z,100113.00
2022-10-15T11:49:42.444Z,100116.28
2022-10-15T11:52:52.064Z,100108.31
2022-10-15T11:55:24.427Z,100109.16
2022-10-15T11:58:00.511Z,100110.97
2022-10-15T12:00:35.816Z,100100.56
2022-10-15T12:03:11.616Z,100099.63
2022-10-15T12:05:51.508Z,100097.81
2022-10-15T12:08:21.799Z,100087.28
2022-10-15T12:11:05.579Z,100089.22
2022-10-15T12:13:41.883Z,100083.69
2022-10-15T12:16:26.024Z,100083.69
2022-10-15T12:19:17.084Z,100081.78
2022-10-15T12:22:06.870Z,100083.50
2022-10-15T12:24:56.435Z,100081.56
2022-10-15T12:27:30.737Z,100083.81
2022-10-15T12:30:25.947Z,100084.56
2022-10-15T12:32:56.984Z,100080.88
2022-10-15T12:35:38.092Z,100086.72
2022-10-15T12:38:26.473Z,100079.59
2022-10-15T12:41:06.243Z,100076.94
2022-10-15T12:43:39.313Z,100076.94
2022-10-15T12:46:10.891Z,100076.53
2022-10-15T12:48:43.462Z,100070.16
2022-10-15T12:51:39.559Z,100079.00
2022-10-15T12:54:41.609Z,100081.25
2022-10-15T12:57:58.246Z,100080.00
2022-10-15T13:00:39.414Z,100070.41
2022-10-15T13:03:36.338Z,100078.59
2022-10-15T13:06:31.038Z,100074.59
2022-10-15T13:09:27.622Z,100067.38
2022-10-15T13:11:57.609Z,100053.97
2022-10-15T13:14:36.832Z,100049.00
2022-10-15T13:17:14.473Z,100058.09
2022-10-15T13:19:50.708Z,100053.13
2022-10-15T13:22:26.093Z,100061.16
2022-10-15T13:24:55.767Z,100048.31
2022-10-15T13:27:26.817Z,100049.88
2022-10-15T13:30:01.272Z,100060.06
2022-10-15T13:32:32.732Z,100052.09
2022-10-15T13:35:02.102Z,100051.97
2022-10-15T13:37:35.828Z,100050.94
2022-10-15T13:40:07.998Z,100053.28
2022-10-15T13:42:36.789Z,100064.75
2022-10-15T13:45:17.043Z,100068.34
2022-10-15T13:47:50.975Z,100075.78
2022-10-15T13:50:24.849Z,100086.59
2022-10-15T13:52:59.234Z,100089.53
2022-10-15T13:55:30.078Z,100096.56
2022-10-15T13:58:03.243Z,100054.94
2022-10-15T14:00:35.783Z,100080.53
2022-10-15T14:03:18.948Z,100067.91
2022-10-15T14:05:49.355Z,100073.66
2022-10-15T14:08:23.604Z,100088.53
2022-10-15T14:10:54.626Z,100086.63
2022-10-15T14:13:23.247Z,100073.28
2022-10-15T14:16:13.713Z,100075.72
2022-10-15T14:18:48.305Z,100069.25
2022-10-15T14:21:20.827Z,100074.72
2022-10-15T14:23:51.139Z,100076.94
2022-10-15T14:26:25.573Z,100091.84
2022-10-15T14:28:55.847Z,100094.59
2022-10-15T14:31:39.218Z,100083.31
2022-10-15T14:34:32.356Z,100080.75
2022-10-15T14:37:01.332Z,100087.56
2022-10-15T14:39:34.764Z,100076.94
2022-10-15T14:42:06.077Z,100089.28
2022-10-15T14:44:46.559Z,100094.59
2022-10-15T14:47:22.951Z,100097.25
2022-10-15T14:49:55.744Z,100100.75
2022-10-15T14:52:24.722Z,100094.38
2022-10-15T14:55:07.173Z,100112.75
2022-10-15T14:57:41.152Z,100110.88
2022-10-15T15:00:27.279Z,100100.66
2022-10-15T15:02:57.737Z,100107.31
2022-10-15T15:05:28.030Z,100095.41
2022-10-15T15:08:00.119Z,100097.50
2022-10-15T15:10:33.931Z,100103.22
2022-10-15T15:13:02.896Z,100102.66
2022-10-15T15:15:31.671Z,100103.81
2022-10-15T15:17:59.912Z,100092.66
2022-10-15T15:20:28.548Z,100102.72
2022-10-15T15:22:57.279Z,100104.81
2022-10-15T15:25:31.279Z,100101.59
2022-10-15T15:28:01.363Z,100096.50
2022-10-15T15:30:34.277Z,100105.63
2022-10-15T15:33:02.523Z,100104.13
2022-10-15T15:35:37.789Z,100100.69
2022-10-15T15:38:08.615Z,100099.94
2022-10-15T15:40:37.414Z,100106.22
2022-10-15T15:43:06.961Z,100097.28
2022-10-15T15:45:35.729Z,100098.97
2022-10-15T15:48:05.214Z,100096.44
2022-10-15T15:50:34.169Z,100104.28
2022-10-15T15:53:03.051Z,100098.97
2022-10-15T15:55:31.628Z,100091.34
2022-10-15T15:57:59.812Z,100105.75
2022-10-15T16:00:29.402Z,100114.63
2022-10-15T16:02:58.343Z,100107.72
2022-10-15T16:05:26.889Z,100122.91
2022-10-15T16:07:55.384Z,100110.72
2022-10-15T16:10:24.188Z,100123.25
2022-10-15T16:12:52.688Z,100127.03
2022-10-15T16:15:21.007Z,100128.19
2022-10-15T16:17:50.611Z,100133.69
2022-10-15T16:20:19.245Z,100141.81
2022-10-15T16:22:51.177Z,100138.41
2022-10-15T16:25:20.547Z,100139.56
2022-10-15T16:27:51.638Z,100149.41
2022-10-15T16:30:20.430Z,100147.69
2022-10-15T16:32:51.160Z,100134.44
2022-10-15T16:35:19.717Z,100142.41
2022-10-15T16:37:48.199Z,100143.31
2022-10-15T16:40:18.968Z,100136.25
2022-10-15T16:42:47.418Z,100143.31
2022-10-15T16:45:15.935Z,100145.13
2022-10-15T16:47:44.310Z,100146.75
2022-10-15T16:50:14.045Z,100155.47
2022-10-15T16:52:42.638Z,100148.44
2022-10-15T16:55:11.531Z,100153.59
2022-10-15T16:57:41.298Z,100155.16
2022-10-15T17:00:11.517Z,100160.41
2022-10-15T17:02:39.704Z,100160.28
2022-10-15T17:05:09.393Z,100166.47
2022-10-15T17:07:38.951Z,100168.16
2022-10-15T17:10:10.836Z,100174.41
2022-10-15T17:12:42.227Z,100182.38
2022-10-15T17:15:11.463Z,100191.25
2022-10-15T17:17:40.010Z,100193.06
2022-10-15T17:20:09.874Z,100191.44
2022-10-15T17:22:39.524Z,100207.34
2022-10-15T17:25:08.262Z,100210.97
2022-10-15T17:27:36.562Z,100204.81
2022-10-15T17:30:05.805Z,100209.28
2022-10-15T17:32:34.369Z,100204.91
2022-10-15T17:35:04.304Z,100203.09
2022-10-15T17:37:32.799Z,100203.19
2022-10-15T17:40:02.641Z,100205.84
2022-10-15T17:42:30.820Z,100206.78
2022-10-15T17:44:59.315Z,100205.19
2022-10-15T17:47:27.795Z,100210.56
2022-10-15T17:49:56.283Z,100220.34
2022-10-15T17:52:24.497Z,100202.81
2022-10-15T17:54:53.014Z,100212.56
2022-10-15T17:57:22.823Z,100225.91
2022-10-15T17:59:51.536Z,100220.59
2022-10-15T18:02:19.955Z,100223.44
2022-10-15T18:04:49.780Z,100226.97
2022-10-15T18:07:19.770Z,100220.88
2022-10-15T18:09:48.298Z,100220.97
2022-10-15T18:12:16.506Z,100235.16
2022-10-15T18:14:46.083Z,100228.16
2022-10-15T18:17:15.213Z,100226.44
2022-10-15T18:19:43.840Z,100226.63
2022-10-15T18:22:12.237Z,100232.97
2022-10-15T18:24:40.596Z,100237.41
2022-10-15T18:27:09.100Z,100245.38
2022-10-15T18:29:37.631Z,100248.00
2022-10-15T18:32:07.526Z,100251.63
2022-10-15T18:34:35.780Z,100246.31
2022-10-15T18:37:04.025Z,100263.06
2022-10-15T18:39:32.263Z,100258.63
2022-10-15T18:42:00.530Z,100266.56
2022-10-15T18:44:29.314Z,100249.75
2022-10-15T18:46:57.860Z,100260.59
2022-10-15T18:49:27.440Z,100266.50
2022-10-15T18:51:56.119Z,100270.66
2022-10-15T18:54:25.252Z,100261.53
2022-10-15T18:56:53.783Z,100271.69
2022-10-15T18:59:22.220Z,100271.19
2022-10-15T19:01:50.816Z,100274.06
2022-10-15T19:04:21.067Z,100262.00
2022-10-15T19:06:53.446Z,100262.28
2022-10-15T19:09:25.950Z,100269.44
2022-10-15T19:11:57.058Z,100270.41
2022-10-15T19:14:28.008Z,100267.75
2022-10-15T19:16:56.766Z,100273.06
2022-10-15T19:19:26.817Z,100273.06
2022-10-15T19:21:59.974Z,100276.44
2022-10-15T19:24:28.644Z,100281.75
2022-10-15T19:26:57.208Z,100280.91
2022-10-15T19:29:25.893Z,100298.69
2022-10-15T19:31:56.742Z,100290.63
2022-10-15T19:34:25.367Z,100285.34
2022-10-15T19:36:53.842Z,100283.63
2022-10-15T19:39:25.710Z,100290.63
2022-10-15T19:41:54.649Z,100294.97
2022-10-15T19:44:25.767Z,100295.75
2022-10-15T19:46:55.489Z,100304.50
2022-10-15T19:49:25.135Z,100292.16
2022-10-15T19:51:53.769Z,100289.63
2022-10-15T19:54:22.522Z,100304.66
2022-10-15T19:56:52.205Z,100317.97
2022-10-15T19:59:20.493Z,100324.28
2022-10-15T20:01:48.719Z,100317.44
2022-10-15T20:04:20.666Z,100322.97
2022-10-15T20:06:52.499Z,100326.69
2022-10-15T20:09:21.694Z,100331.19
2022-10-15T20:11:51.283Z,100331.38
2022-10-15T20:14:19.973Z,100357.91
2022-10-15T20:16:48.556Z,100340.41
2022-10-15T20:19:17.152Z,100346.63
2022-10-15T20:21:46.085Z,100341.44
2022-10-15T20:24:14.783Z,100352.19
2022-10-15T20:26:43.311Z,100367.97
2022-10-15T20:29:17.242Z,100364.53
2022-10-15T20:31:45.836Z,100359.25
2022-10-15T20:34:14.388Z,100351.41
2022-10-15T20:36:42.986Z,100344.41
2022-10-15T20:39:11.597Z,100353.25
2022-10-15T20:41:40.136Z,100352.50
2022-10-15T20:44:11.019Z,100343.69
2022-10-15T20:46:45.349Z,100347.28
2022-10-15T20:49:17.757Z,100364.09
2022-10-15T20:51:46.398Z,100361.53
2022-10-15T20:54:16.441Z,100360.69
2022-10-15T20:56:44.764Z,100363.47
2022-10-15T20:59:13.417Z,100366.22
2022-10-15T21:01:43.028Z,100370.63
2022-10-15T21:04:11.755Z,100383.03
2022-10-15T21:06:40.355Z,100378.69
2022-10-15T21:09:08.641Z,100378.69
2022-10-15T21:11:42.645Z,100354.91
2022-10-15T21:14:11.233Z,100364.66
2022-10-15T21:16:40.116Z,100354.91
2022-10-15T21:19:09.901Z,100370.78
2022-10-15T21:21:39.148Z,100377.88
2022-10-15T21:24:07.821Z,100369.94
2022-10-15T21:26:36.290Z,100372.59
2022-10-15T21:29:04.703Z,100383.13
2022-10-15T21:31:33.311Z,100369.88
2022-10-15T21:34:01.889Z,100367.25
2022-10-15T21:36:31.425Z,100380.47
2022-10-15T21:39:01.937Z,100386.69
2022-10-15T21:41:32.414Z,100382.31
2022-10-15T21:44:02.463Z,100393.75
2022-10-15T21:46:31.633Z,100406.16
2022-10-15T21:49:01.347Z,100391.13
2022-10-15T21:51:33.223Z,100405.19
2022-10-15T21:54:02.676Z,100391.13
2022-10-15T21:56:31.506Z,100404.28
2022-10-15T21:59:00.279Z,100404.28
2022-10-15T22:01:31.435Z,100414.88
2022-10-15T22:04:02.185Z,100417.53
2022-10-15T22:06:32.720Z,100411.28
2022-10-15T22:09:02.009Z,100403.44
2022-10-15T22:11:32.634Z,100409.56
2022-10-15T22:14:03.602Z,100409.56
2022-10-15T22:16:35.013Z,100404.28
2022-10-15T22:19:04.252Z,100408.72
2022-10-15T22:21:36.361Z,100410.44
2022-10-15T22:24:07.989Z,100411.28
2022-10-15T22:26:39.299Z,100411.28
2022-10-15T22:29:09.533Z,100415.63
2022-10-15T22:31:37.730Z,100418.28
2022-10-15T22:34:06.256Z,100413.88
2022-10-15T22:36:35.832Z,100411.13
2022-10-15T22:39:06.830Z,100408.56
2022-10-15T22:41:39.543Z,100414.72
2022-10-15T22:44:08.517Z,100411.13
2022-10-15T22:46:39.382Z,100411.13
2022-10-15T22:49:09.502Z,100415.47
2022-10-15T22:51:39.143Z,100410.16
2022-10-15T22:54:07.655Z,100409.25
2022-10-15T22:56:36.888Z,100404.81
2022-10-15T22:59:06.213Z,100412.66
2022-10-15T23:01:36.035Z,100405.50
2022-10-15T23:04:07.372Z,100417.78
2022-10-15T23:06:38.457Z,100408.94
2022-10-15T23:09:08.402Z,100422.06
2022-10-15T23:11:40.042Z,100415.88
2022-10-15T23:14:12.838Z,100424.66
2022-10-15T23:16:43.077Z,100420.13
2022-10-15T23:19:16.823Z,100425.41
2022-10-15T23:21:48.739Z,100428.06
2022-10-15T23:24:20.001Z,100433.34
2022-10-15T23:26:49.120Z,100440.44
2022-10-15T23:29:20.358Z,100454.69
2022-10-15T23:31:50.128Z,100460.16
2022-10-15T23:34:20.961Z,100445.38
2022-10-15T23:36:51.433Z,100451.66
2022-10-15T23:39:23.404Z,100445.84
2022-10-15T23:41:51.994Z,100432.91
2022-10-15T23:44:21.413Z,100428.78
2022-10-15T23:46:50.014Z,100426.53
2022-10-15T23:49:18.581Z,100433.22
2022-10-15T23:51:47.180Z,100439.75
2022-10-15T23:54:19.673Z,100440.19
2022-10-15T23:56:48.543Z,100449.16
2022-10-15T23:59:18.286Z,100451.19
